Portada
METAR-TAF:

METAR-TAF

Aeroports :

Kalaleh, Iran

latitud: 37-22-60N, longitud: 55-27-07E, altitud: 130 m

Observació

L'informe es va fer fa 24 minuts, a les 16:00 UTC
Vent 6 kt del Sud-Oest
Temperatura 30°C
Humitat 43%
Pressió 1010 hPa
Visibilitat 10 km o més
Escasses núvols a una alçada de 3500 ft
Núvols disperses a una alçada de 10000 ft

METAR: OINE 101600Z 22006KT 9999 FEW035 SCT100 30/16 Q1010

Hora: 20:54 (16:24 UTC)


TAF: manca

Observacions i pronòstics meteorològics de més de 4000 aeroports (METAR i TAF).

Les estacions disponibles són els punts grocs i vermells al mapa.

Posi el ratolí al punt desitjat per veure el nom de l'estació.

Feu clic per veure les observacions i els pronòstics meteorològics.

Per canviar el mapa: feu clic els botons verds amb una creu de color negre per apropar; al botó verd amb un guió per allunyar la imatge; o en les fletxes verdes per a mapes adjacents.


METAR-TAF: